Time;durP1;ratioP1;P1;durP2;ratioP2;P2;SDS_P1;SDS_P2;PMS_P1;PMS_P2;Temp;Humidity;BMP_temperature;BMP_pressure;BME280_temperature;BME280_humidity;BME280_pressure;Samples;Min_cycle;Max_cycle;Signal;HPM_P1;HPM_P2
2023/12/28 00:00:03;;;;;;;1.17;0.63;;;6.50;99.90;;;;;;5055655;28;20441;-79
2023/12/28 00:02:30;;;;;;;0.60;0.50;;;6.50;99.90;;;;;;5055222;28;20968;-79
2023/12/28 00:04:58;;;;;;;0.87;0.87;;;6.50;99.90;;;;;;5055320;28;20441;-79
2023/12/28 00:07:25;;;;;;;1.80;0.90;;;6.50;99.90;;;;;;5055048;28;20489;-79
2023/12/28 00:09:51;;;;;;;0.50;0.50;;;6.60;99.90;;;;;;5055427;28;20438;-79
2023/12/28 00:12:19;;;;;;;0.50;0.50;;;6.50;99.90;;;;;;5055204;28;20442;-79
2023/12/28 00:14:45;;;;;;;0.93;0.53;;;6.60;99.90;;;;;;5055251;28;20442;-79
2023/12/28 00:17:12;;;;;;;0.70;0.70;;;6.60;99.90;;;;;;5054958;28;20470;-80
2023/12/28 00:19:39;;;;;;;0.57;0.50;;;6.60;99.90;;;;;;5055196;28;20472;-79
2023/12/28 00:22:07;;;;;;;0.63;0.63;;;6.70;99.90;;;;;;5055436;28;20500;-79
2023/12/28 00:24:33;;;;;;;0.60;0.50;;;6.70;99.90;;;;;;5055030;28;20438;-79
2023/12/28 00:27:00;;;;;;;0.37;0.33;;;6.80;99.90;;;;;;5054823;28;20445;-80
2023/12/28 00:29:28;;;;;;;0.80;0.80;;;6.80;99.90;;;;;;5055120;28;20449;-79
2023/12/28 00:31:55;;;;;;;1.77;0.60;;;6.80;99.90;;;;;;5054586;28;20943;-79
2023/12/28 00:34:22;;;;;;;1.70;0.77;;;6.80;99.90;;;;;;5054725;28;20486;-80
2023/12/28 00:36:48;;;;;;;0.60;0.60;;;6.80;99.90;;;;;;5055041;28;20442;-79
2023/12/28 00:39:16;;;;;;;0.67;0.67;;;6.70;99.90;;;;;;5054973;28;20449;-80
2023/12/28 00:41:43;;;;;;;0.80;0.60;;;6.70;99.90;;;;;;5054500;28;20571;-80
2023/12/28 00:44:10;;;;;;;0.70;0.50;;;6.70;99.90;;;;;;5054226;28;20448;-80
2023/12/28 00:46:36;;;;;;;0.70;0.60;;;6.70;99.90;;;;;;5054863;28;20457;-80
2023/12/28 00:49:03;;;;;;;1.13;0.83;;;6.70;99.90;;;;;;5054527;28;20465;-79
2023/12/28 00:51:30;;;;;;;0.50;0.50;;;6.70;99.90;;;;;;5054364;28;20446;-79
2023/12/28 00:53:56;;;;;;;0.40;0.40;;;6.70;99.90;;;;;;5054580;28;20478;-79
2023/12/28 00:56:24;;;;;;;1.13;0.60;;;6.70;99.90;;;;;;5054973;28;20453;-78
2023/12/28 00:58:51;;;;;;;0.83;0.70;;;6.70;99.90;;;;;;5055882;28;20465;-80
2023/12/28 01:01:17;;;;;;;0.60;0.53;;;6.60;99.90;;;;;;5054991;28;20475;-79
2023/12/28 01:03:44;;;;;;;0.80;0.50;;;6.70;99.90;;;;;;5055004;28;20492;-79
2023/12/28 01:06:11;;;;;;;0.80;0.50;;;6.70;99.90;;;;;;5054751;28;20863;-80
2023/12/28 01:08:37;;;;;;;0.40;0.40;;;6.70;99.90;;;;;;5053848;28;20887;-79
2023/12/28 01:11:04;;;;;;;0.77;0.40;;;6.80;99.90;;;;;;5054529;28;20507;-79
2023/12/28 01:13:32;;;;;;;0.67;0.67;;;6.80;99.90;;;;;;5054507;28;20512;-79
2023/12/28 01:15:59;;;;;;;0.70;0.70;;;6.80;99.90;;;;;;5054584;28;20446;-80
2023/12/28 01:18:26;;;;;;;0.80;0.60;;;6.90;99.90;;;;;;5054173;28;20466;-80
2023/12/28 01:20:52;;;;;;;1.77;0.93;;;6.80;99.90;;;;;;5054715;28;20446;-80
2023/12/28 01:23:19;;;;;;;0.77;0.60;;;6.80;99.90;;;;;;5054367;28;20426;-80
2023/12/28 01:25:46;;;;;;;0.80;0.40;;;6.80;99.90;;;;;;5054331;28;20445;-80
2023/12/28 01:28:13;;;;;;;1.33;0.90;;;6.80;99.90;;;;;;5054003;28;20994;-79
2023/12/28 01:30:40;;;;;;;0.50;0.50;;;6.80;99.90;;;;;;5057564;28;20445;-79
2023/12/28 01:33:07;;;;;;;0.60;0.60;;;6.90;99.90;;;;;;5058632;28;20473;-79
2023/12/28 01:35:34;;;;;;;1.30;0.70;;;6.90;99.90;;;;;;5058210;28;20445;-79
2023/12/28 01:38:01;;;;;;;1.70;0.77;;;6.90;99.90;;;;;;5058217;28;20461;-79
2023/12/28 01:40:28;;;;;;;0.50;0.50;;;6.80;99.90;;;;;;5058166;28;20458;-80
2023/12/28 01:42:54;;;;;;;0.70;0.60;;;6.80;99.90;;;;;;5057903;28;20438;-80
2023/12/28 01:45:21;;;;;;;0.67;0.50;;;6.80;99.90;;;;;;5058308;28;20442;-80
2023/12/28 01:47:50;;;;;;;0.97;0.77;;;6.80;99.90;;;;;;5057902;28;20469;-79
2023/12/28 01:50:17;;;;;;;0.90;0.50;;;6.80;99.90;;;;;;5058087;28;20883;-79
2023/12/28 01:52:44;;;;;;;0.50;0.50;;;6.80;99.90;;;;;;5058200;28;20445;-80
2023/12/28 01:55:11;;;;;;;1.57;0.60;;;6.80;99.90;;;;;;5058438;28;20492;-79
2023/12/28 01:57:38;;;;;;;0.97;0.90;;;6.80;99.90;;;;;;5057913;28;20470;-79
2023/12/28 02:00:06;;;;;;;1.37;1.03;;;6.80;99.90;;;;;;5057815;28;20468;-80
2023/12/28 02:02:33;;;;;;;1.50;1.00;;;6.80;99.90;;;;;;5058359;28;20445;-79
2023/12/28 02:05:02;;;;;;;0.83;0.80;;;6.80;99.90;;;;;;5057793;28;20450;-79
2023/12/28 02:07:30;;;;;;;0.83;0.50;;;6.80;99.90;;;;;;5057308;28;21001;-79
2023/12/28 02:09:57;;;;;;;0.70;0.70;;;6.80;99.90;;;;;;5057903;28;20426;-79
2023/12/28 02:12:24;;;;;;;0.60;0.53;;;6.80;99.90;;;;;;5057475;28;20504;-79
2023/12/28 02:14:50;;;;;;;0.50;0.50;;;6.80;99.90;;;;;;5057257;28;20473;-80
2023/12/28 02:17:23;;;;;;;0.67;0.43;;;6.80;99.90;;;;;;5057121;28;20480;-80
2023/12/28 02:19:53;;;;;;;0.40;0.40;;;6.80;99.90;;;;;;5057410;28;20433;-79
2023/12/28 02:22:24;;;;;;;1.13;0.63;;;6.90;99.90;;;;;;5058137;28;20449;-80
2023/12/28 02:25:09;;;;;;;0.50;0.50;;;6.90;99.90;;;;;;5057215;28;20414;-80
2023/12/28 02:27:38;;;;;;;0.90;0.47;;;6.90;99.90;;;;;;5057067;28;20473;-79
2023/12/28 02:30:07;;;;;;;0.73;0.50;;;6.90;99.90;;;;;;5057058;28;20445;-79
2023/12/28 02:32:43;;;;;;;0.60;0.50;;;6.90;99.90;;;;;;5057390;28;20454;-79
2023/12/28 02:35:17;;;;;;;1.10;0.80;;;6.90;99.90;;;;;;5057397;28;20470;-80
2023/12/28 02:37:48;;;;;;;1.03;0.60;;;6.90;99.90;;;;;;5057038;28;20472;-79
2023/12/28 02:40:17;;;;;;;0.83;0.80;;;6.90;99.90;;;;;;5057177;28;20426;-79
2023/12/28 02:42:43;;;;;;;0.60;0.60;;;6.90;99.90;;;;;;5056722;28;20955;-80
2023/12/28 02:45:10;;;;;;;0.40;0.40;;;6.90;99.90;;;;;;5057287;28;20444;-79
2023/12/28 02:47:37;;;;;;;2.30;0.53;;;6.90;99.90;;;;;;5056616;28;20511;-79
2023/12/28 02:50:04;;;;;;;0.60;0.60;;;6.90;99.90;;;;;;5057108;28;20442;-79
2023/12/28 02:52:31;;;;;;;0.60;0.60;;;6.90;99.90;;;;;;5056794;28;20446;-79
2023/12/28 02:54:58;;;;;;;0.53;0.53;;;6.90;99.90;;;;;;5056616;28;20489;-79
2023/12/28 02:57:26;;;;;;;1.30;1.20;;;6.90;99.90;;;;;;5056770;28;20470;-79
2023/12/28 02:59:52;;;;;;;1.00;0.60;;;7.00;99.90;;;;;;5056535;28;20446;-80
2023/12/28 03:02:19;;;;;;;0.60;0.50;;;7.10;99.90;;;;;;5056447;28;20452;-79
2023/12/28 03:04:46;;;;;;;0.87;0.60;;;7.20;99.90;;;;;;5055918;28;20477;-80
2023/12/28 03:07:12;;;;;;;2.20;0.70;;;7.30;99.90;;;;;;5060267;28;20492;-79
2023/12/28 03:09:39;;;;;;;0.60;0.60;;;7.40;99.90;;;;;;5056892;28;20437;-80
2023/12/28 03:12:07;;;;;;;1.10;0.40;;;7.40;99.90;;;;;;5056423;28;20525;-79
2023/12/28 03:14:35;;;;;;;0.87;0.43;;;7.40;99.90;;;;;;5055789;28;21014;-80
2023/12/28 03:17:02;;;;;;;0.50;0.40;;;7.50;99.90;;;;;;5055696;28;21145;-80
2023/12/28 03:19:28;;;;;;;0.50;0.40;;;7.50;99.90;;;;;;5055343;28;20943;-80
2023/12/28 03:21:55;;;;;;;0.60;0.60;;;7.50;99.90;;;;;;5056026;28;20838;-80
2023/12/28 03:24:21;;;;;;;0.80;0.80;;;7.50;99.90;;;;;;5055809;28;20846;-79
2023/12/28 03:26:48;;;;;;;0.93;0.50;;;7.50;99.90;;;;;;5055489;28;20983;-81
2023/12/28 03:29:15;;;;;;;0.60;0.50;;;7.50;99.90;;;;;;5055625;28;20958;-80
2023/12/28 03:31:43;;;;;;;1.80;0.60;;;7.60;99.90;;;;;;5055729;28;20445;-80
2023/12/28 03:34:09;;;;;;;1.67;0.73;;;7.60;99.90;;;;;;5055630;28;20492;-80
2023/12/28 03:36:36;;;;;;;0.80;0.60;;;7.60;99.90;;;;;;5055240;28;20446;-80
2023/12/28 03:39:03;;;;;;;0.90;0.50;;;7.60;99.90;;;;;;5055073;28;20474;-80
2023/12/28 03:41:30;;;;;;;0.40;0.40;;;7.60;99.90;;;;;;5055667;28;20446;-80
2023/12/28 03:43:57;;;;;;;0.73;0.70;;;7.60;99.90;;;;;;5055750;28;20477;-80
2023/12/28 03:46:24;;;;;;;0.50;0.50;;;7.60;99.90;;;;;;5055300;28;20449;-80
2023/12/28 03:48:52;;;;;;;0.40;0.40;;;7.60;99.90;;;;;;5054730;28;20469;-78
2023/12/28 03:51:19;;;;;;;0.50;0.50;;;7.50;99.90;;;;;;5054351;28;20919;-78
2023/12/28 03:53:45;;;;;;;0.50;0.50;;;7.50;99.90;;;;;;5053696;28;20954;-78
2023/12/28 03:56:21;;;;;;;0.70;0.50;;;7.50;99.90;;;;;;5054719;28;20437;-80
2023/12/28 03:58:47;;;;;;;1.03;0.60;;;7.50;99.90;;;;;;5054898;28;21005;-80
2023/12/28 04:01:14;;;;;;;0.47;0.47;;;7.50;99.90;;;;;;5055075;28;20438;-80
2023/12/28 04:03:41;;;;;;;2.40;0.70;;;7.50;99.90;;;;;;5055007;28;20449;-80
2023/12/28 04:06:09;;;;;;;1.43;0.60;;;7.50;99.90;;;;;;5055216;28;20939;-80
2023/12/28 04:08:36;;;;;;;1.03;0.50;;;7.50;99.90;;;;;;5054462;28;20861;-80
2023/12/28 04:11:02;;;;;;;0.60;0.60;;;7.40;99.90;;;;;;5054778;28;20862;-81
2023/12/28 04:13:29;;;;;;;1.03;0.50;;;7.40;99.90;;;;;;5054790;28;20445;-80
2023/12/28 04:15:56;;;;;;;0.60;0.50;;;7.40;99.90;;;;;;5055723;28;20482;-80
2023/12/28 04:18:22;;;;;;;0.80;0.50;;;7.40;99.90;;;;;;5054614;28;20477;-80
2023/12/28 04:20:49;;;;;;;0.60;0.40;;;7.40;99.90;;;;;;5054696;28;20441;-80
2023/12/28 04:23:17;;;;;;;0.60;0.40;;;7.40;99.90;;;;;;5054554;28;20449;-80
2023/12/28 04:25:44;;;;;;;0.67;0.50;;;7.40;99.90;;;;;;5054417;28;20472;-80
2023/12/28 04:28:10;;;;;;;0.70;0.57;;;7.40;99.90;;;;;;5054365;28;20807;-80
2023/12/28 04:30:37;;;;;;;0.93;0.67;;;7.50;99.90;;;;;;5054773;28;20465;-80
2023/12/28 04:33:04;;;;;;;1.20;1.10;;;7.60;99.90;;;;;;5054788;28;20442;-80
2023/12/28 04:35:31;;;;;;;1.07;0.93;;;7.60;99.90;;;;;;5054365;28;20473;-80
2023/12/28 04:37:58;;;;;;;0.40;0.40;;;7.70;99.90;;;;;;5054210;28;20839;-80
2023/12/28 04:40:26;;;;;;;0.47;0.40;;;7.80;99.90;;;;;;5054484;28;20454;-80
2023/12/28 04:42:53;;;;;;;2.37;0.80;;;7.90;99.90;;;;;;5054385;28;20450;-80
2023/12/28 04:45:19;;;;;;;0.40;0.40;;;8.10;99.90;;;;;;5054160;28;20460;-80
2023/12/28 04:47:46;;;;;;;0.70;0.70;;;8.10;99.90;;;;;;5053963;28;20974;-80
2023/12/28 04:50:13;;;;;;;0.50;0.40;;;8.20;99.90;;;;;;5054430;28;20461;-80
2023/12/28 04:52:40;;;;;;;0.70;0.63;;;8.30;99.90;;;;;;5054037;28;20442;-80
2023/12/28 04:55:08;;;;;;;0.63;0.63;;;8.30;99.90;;;;;;5053813;28;20994;-80
2023/12/28 04:57:36;;;;;;;0.70;0.50;;;8.30;99.90;;;;;;5054340;28;20468;-80
2023/12/28 05:00:03;;;;;;;0.60;0.53;;;8.30;99.90;;;;;;5054192;28;20453;-80
2023/12/28 05:02:29;;;;;;;0.70;0.50;;;8.30;99.90;;;;;;5054174;28;20448;-80
2023/12/28 05:04:56;;;;;;;0.57;0.50;;;8.30;99.90;;;;;;5053877;28;20445;-79
2023/12/28 05:07:23;;;;;;;1.70;0.83;;;8.30;99.90;;;;;;5053784;28;20465;-80
2023/12/28 05:09:49;;;;;;;0.47;0.43;;;8.20;99.90;;;;;;5054779;28;20418;-80
2023/12/28 05:12:16;;;;;;;0.97;0.50;;;8.20;99.90;;;;;;5053820;28;20450;-80
2023/12/28 05:14:44;;;;;;;0.63;0.63;;;8.20;99.90;;;;;;5053819;28;20485;-80
2023/12/28 05:17:11;;;;;;;0.90;0.40;;;8.20;99.90;;;;;;5057709;28;20469;-80
2023/12/28 05:19:37;;;;;;;1.40;0.40;;;8.20;99.90;;;;;;5053602;28;20472;-79
2023/12/28 05:22:06;;;;;;;0.50;0.50;;;8.20;99.90;;;;;;5053769;28;20442;-80
2023/12/28 05:24:33;;;;;;;0.40;0.40;;;8.20;99.90;;;;;;5053818;28;20807;-80
2023/12/28 05:26:59;;;;;;;0.50;0.40;;;8.30;99.90;;;;;;5053439;28;20437;-81
2023/12/28 05:29:26;;;;;;;0.50;0.50;;;8.30;99.90;;;;;;5053393;28;20450;-78
2023/12/28 05:31:54;;;;;;;0.40;0.40;;;8.40;99.90;;;;;;5053288;28;20446;-79
2023/12/28 05:34:21;;;;;;;0.50;0.40;;;8.40;99.90;;;;;;5053146;28;20478;-79
2023/12/28 05:36:47;;;;;;;0.60;0.57;;;8.50;99.90;;;;;;5053083;28;20449;-79
2023/12/28 05:39:14;;;;;;;0.40;0.40;;;8.50;99.90;;;;;;5053141;28;20442;-79
2023/12/28 05:41:41;;;;;;;0.40;0.40;;;8.50;99.90;;;;;;5052746;28;20503;-80
2023/12/28 05:44:08;;;;;;;0.80;0.80;;;8.50;99.90;;;;;;5053075;28;20433;-79
2023/12/28 05:46:34;;;;;;;0.50;0.40;;;8.50;99.90;;;;;;5053156;28;20575;-79
2023/12/28 05:49:02;;;;;;;1.27;1.17;;;8.40;99.90;;;;;;5052974;28;20533;-79
2023/12/28 05:51:29;;;;;;;0.43;0.43;;;8.40;99.90;;;;;;5052972;28;20442;-79
2023/12/28 05:53:56;;;;;;;0.70;0.50;;;8.30;99.90;;;;;;5052931;28;20441;-79
2023/12/28 05:56:22;;;;;;;1.00;0.40;;;8.40;99.90;;;;;;5052903;28;20485;-79
2023/12/28 05:58:49;;;;;;;0.50;0.50;;;8.30;99.90;;;;;;5052972;28;20465;-79
2023/12/28 06:01:15;;;;;;;0.40;0.40;;;8.30;99.90;;;;;;5052983;28;20446;-79
2023/12/28 06:03:42;;;;;;;1.33;0.50;;;8.30;99.90;;;;;;5052937;28;20450;-78
2023/12/28 06:06:10;;;;;;;0.40;0.40;;;8.30;99.90;;;;;;5052949;28;20495;-78
2023/12/28 06:08:37;;;;;;;2.80;0.60;;;8.30;99.90;;;;;;5052505;28;20485;-78
2023/12/28 06:11:03;;;;;;;0.40;0.40;;;8.40;99.90;;;;;;5052914;28;20442;-78
2023/12/28 06:13:29;;;;;;;5.90;0.63;;;8.40;99.90;;;;;;5052808;28;20442;-78
2023/12/28 06:15:56;;;;;;;0.40;0.30;;;8.50;99.90;;;;;;5055195;28;20481;-78
2023/12/28 06:18:22;;;;;;;0.40;0.40;;;8.50;99.90;;;;;;5056581;28;20235;-79
2023/12/28 06:20:49;;;;;;;0.70;0.50;;;8.50;99.90;;;;;;5056444;28;20943;-79
2023/12/28 06:23:17;;;;;;;0.70;0.50;;;8.50;99.90;;;;;;5057565;28;20787;-78
2023/12/28 06:25:44;;;;;;;0.60;0.50;;;8.60;99.90;;;;;;5056473;28;20809;-79
2023/12/28 06:28:10;;;;;;;0.40;0.40;;;8.60;99.90;;;;;;5056491;28;20476;-78
2023/12/28 06:30:37;;;;;;;0.53;0.50;;;8.60;99.90;;;;;;5056286;28;20447;-79
2023/12/28 06:33:04;;;;;;;1.00;0.57;;;8.60;99.90;;;;;;5056338;28;20444;-78
2023/12/28 06:35:31;;;;;;;1.10;0.53;;;8.60;99.90;;;;;;5056227;28;20520;-78
2023/12/28 06:37:58;;;;;;;1.17;0.47;;;8.60;99.90;;;;;;5056071;28;20472;-78
2023/12/28 06:40:26;;;;;;;0.47;0.43;;;8.60;99.90;;;;;;5055859;28;20438;-79
2023/12/28 06:42:52;;;;;;;1.90;0.70;;;8.50;99.90;;;;;;5056096;28;20433;-79
2023/12/28 06:45:19;;;;;;;0.40;0.40;;;8.60;99.90;;;;;;5056087;28;20437;-78
2023/12/28 06:47:46;;;;;;;2.50;0.60;;;8.50;99.90;;;;;;5055988;28;20470;-79
2023/12/28 06:50:12;;;;;;;0.70;0.60;;;8.50;99.90;;;;;;5055963;28;20455;-78
2023/12/28 06:52:39;;;;;;;0.63;0.50;;;8.60;99.90;;;;;;5055684;28;20983;-79
2023/12/28 06:55:06;;;;;;;1.13;0.50;;;8.60;99.90;;;;;;5055566;28;21020;-79
2023/12/28 06:57:34;;;;;;;1.43;0.50;;;8.70;99.90;;;;;;5055480;28;20978;-78
2023/12/28 07:00:02;;;;;;;0.47;0.40;;;8.70;99.90;;;;;;5055422;28;20930;-79
2023/12/28 07:02:29;;;;;;;2.77;0.60;;;8.70;99.90;;;;;;5055804;28;20511;-79
2023/12/28 07:04:56;;;;;;;0.40;0.40;;;8.80;99.90;;;;;;5055719;28;20441;-78
2023/12/28 07:07:22;;;;;;;2.03;0.57;;;8.80;99.90;;;;;;5055417;28;20516;-79
2023/12/28 07:09:49;;;;;;;1.33;0.77;;;8.90;99.90;;;;;;5055728;28;20488;-79
2023/12/28 07:12:16;;;;;;;0.93;0.60;;;8.90;99.90;;;;;;5055284;28;20477;-79
2023/12/28 07:14:44;;;;;;;0.70;0.50;;;9.00;99.90;;;;;;5055359;28;20437;-78
2023/12/28 07:17:11;;;;;;;0.77;0.47;;;9.10;99.90;;;;;;5055474;28;20826;-78
2023/12/28 07:19:38;;;;;;;0.60;0.50;;;9.20;99.90;;;;;;5055418;28;20454;-78
2023/12/28 07:22:05;;;;;;;0.80;0.60;;;9.30;99.90;;;;;;5055479;28;20450;-78
2023/12/28 07:24:31;;;;;;;0.60;0.60;;;9.30;99.90;;;;;;5057565;28;20453;-76
2023/12/28 07:26:58;;;;;;;1.23;0.80;;;9.30;99.90;;;;;;5056393;28;20449;-79
2023/12/28 07:29:25;;;;;;;0.90;0.60;;;9.40;99.90;;;;;;5055398;28;20446;-78
2023/12/28 07:31:54;;;;;;;1.10;0.70;;;9.40;99.90;;;;;;5055450;28;20441;-79
2023/12/28 07:34:21;;;;;;;2.10;0.50;;;9.40;99.90;;;;;;5055331;28;20445;-78
2023/12/28 07:36:48;;;;;;;0.47;0.47;;;9.40;99.90;;;;;;5055095;28;20486;-78
2023/12/28 07:39:14;;;;;;;1.53;0.77;;;9.40;99.90;;;;;;5055101;28;20442;-78
2023/12/28 07:41:41;;;;;;;1.73;0.50;;;9.50;99.90;;;;;;5055157;28;20426;-78
2023/12/28 07:44:08;;;;;;;0.80;0.60;;;9.50;99.90;;;;;;5054618;28;20939;-78
2023/12/28 07:46:34;;;;;;;0.60;0.60;;;9.50;99.90;;;;;;5055141;28;20503;-78
2023/12/28 07:49:02;;;;;;;0.67;0.50;;;9.50;99.90;;;;;;5054733;28;20473;-78
2023/12/28 07:51:29;;;;;;;1.60;0.73;;;9.50;99.90;;;;;;5054809;28;20799;-79
2023/12/28 07:53:56;;;;;;;1.00;0.50;;;9.50;99.90;;;;;;5054757;28;20453;-79
2023/12/28 07:56:22;;;;;;;0.73;0.50;;;9.60;99.90;;;;;;5054321;28;21003;-79
2023/12/28 07:58:49;;;;;;;3.80;0.60;;;9.60;99.90;;;;;;5054589;28;20485;-78
2023/12/28 08:01:16;;;;;;;0.53;0.47;;;9.50;99.90;;;;;;5054577;28;20456;-78
2023/12/28 08:03:42;;;;;;;0.60;0.50;;;9.50;99.90;;;;;;5054581;28;20441;-78
2023/12/28 08:06:12;;;;;;;0.73;0.40;;;9.60;99.90;;;;;;5054534;28;20454;-78
2023/12/28 08:08:39;;;;;;;0.50;0.40;;;9.60;99.90;;;;;;5053944;28;20486;-78
2023/12/28 08:11:06;;;;;;;0.70;0.50;;;9.60;99.90;;;;;;5054411;28;20537;-78
2023/12/28 08:13:33;;;;;;;0.60;0.60;;;9.70;99.90;;;;;;5054446;28;20438;-79
2023/12/28 08:15:59;;;;;;;0.60;0.40;;;9.70;99.90;;;;;;5054324;28;20486;-78
2023/12/28 08:18:26;;;;;;;0.63;0.50;;;9.70;99.90;;;;;;5053911;28;20462;-79
2023/12/28 08:20:53;;;;;;;0.40;0.40;;;9.70;99.90;;;;;;5054014;28;20503;-78
2023/12/28 08:23:21;;;;;;;1.00;0.50;;;9.60;99.90;;;;;;5054291;28;20458;-78
2023/12/28 08:25:47;;;;;;;0.50;0.50;;;9.70;99.90;;;;;;5053967;28;20449;-78
2023/12/28 08:28:14;;;;;;;0.50;0.47;;;9.70;99.90;;;;;;5053809;28;20462;-78
2023/12/28 08:30:41;;;;;;;0.40;0.40;;;9.60;99.90;;;;;;5053879;28;20793;-78
2023/12/28 08:33:07;;;;;;;0.90;0.60;;;9.70;99.90;;;;;;5054050;28;20446;-78
2023/12/28 08:35:34;;;;;;;3.63;0.83;;;9.70;99.90;;;;;;5053750;28;20478;-78
2023/12/28 08:38:01;;;;;;;0.40;0.40;;;9.80;99.90;;;;;;5053838;28;20698;-78
2023/12/28 08:40:28;;;;;;;3.33;0.50;;;9.80;99.90;;;;;;5054029;28;20446;-78
2023/12/28 08:42:55;;;;;;;0.50;0.50;;;9.70;99.90;;;;;;5053938;28;20449;-79
2023/12/28 08:45:22;;;;;;;0.40;0.40;;;9.70;99.90;;;;;;5053764;28;20508;-78
2023/12/28 08:47:48;;;;;;;0.53;0.50;;;9.70;99.90;;;;;;5053750;28;20458;-78
2023/12/28 08:50:15;;;;;;;2.57;0.93;;;9.60;99.90;;;;;;5053861;28;20448;-78
2023/12/28 08:52:42;;;;;;;1.00;0.40;;;9.60;99.90;;;;;;5053801;28;20441;-78
2023/12/28 08:55:09;;;;;;;1.20;1.10;;;9.50;99.90;;;;;;5053304;28;20942;-78
2023/12/28 08:57:37;;;;;;;6.30;1.20;;;9.60;99.90;;;;;;5053661;28;20472;-78
2023/12/28 09:00:06;;;;;;;2.80;0.77;;;9.60;99.90;;;;;;5053595;28;20453;-78
2023/12/28 09:02:32;;;;;;;0.60;0.53;;;9.70;99.90;;;;;;5053578;28;20453;-78
2023/12/28 09:05:00;;;;;;;0.80;0.67;;;9.70;99.90;;;;;;5053830;28;20438;-78
2023/12/28 09:07:27;;;;;;;1.03;0.70;;;9.70;99.90;;;;;;5053821;28;20892;-78
2023/12/28 09:09:54;;;;;;;1.00;0.80;;;9.70;99.90;;;;;;5053339;28;20961;-78
2023/12/28 09:12:21;;;;;;;3.50;0.60;;;9.70;99.90;;;;;;5053942;28;20473;-78
2023/12/28 09:14:52;;;;;;;2.80;0.63;;;9.80;99.90;;;;;;5055078;28;20445;-79
2023/12/28 09:17:19;;;;;;;0.70;0.53;;;9.70;99.90;;;;;;5053084;28;20493;-79
2023/12/28 09:19:46;;;;;;;3.00;0.50;;;9.70;99.90;;;;;;5055088;28;20452;-78
2023/12/28 09:22:12;;;;;;;1.33;0.60;;;9.70;99.90;;;;;;5053436;28;20554;-78
2023/12/28 09:24:39;;;;;;;0.80;0.50;;;9.70;99.90;;;;;;5053323;28;20452;-78
2023/12/28 09:27:07;;;;;;;1.57;0.60;;;9.70;99.90;;;;;;5053216;28;20461;-78
2023/12/28 09:29:34;;;;;;;0.67;0.67;;;9.70;99.90;;;;;;5053297;28;20500;-78
2023/12/28 09:32:03;;;;;;;1.97;0.60;;;9.80;99.90;;;;;;5053270;28;20449;-78
2023/12/28 09:34:29;;;;;;;0.70;0.50;;;9.80;99.90;;;;;;5052892;28;20482;-78
2023/12/28 09:36:56;;;;;;;0.60;0.60;;;9.80;99.90;;;;;;5053215;28;20485;-78
2023/12/28 09:39:22;;;;;;;1.27;0.57;;;9.90;99.90;;;;;;5060169;28;20946;-79
2023/12/28 09:42:00;;;;;;;0.90;0.50;;;9.90;99.90;;;;;;5053264;28;20468;-79
2023/12/28 09:44:27;;;;;;;0.50;0.40;;;9.90;99.90;;;;;;5053224;28;20429;-79
2023/12/28 09:46:55;;;;;;;2.47;1.00;;;9.90;99.90;;;;;;5053070;28;20445;-78
2023/12/28 09:49:24;;;;;;;1.27;1.17;;;9.90;99.90;;;;;;5053260;28;20896;-78
2023/12/28 09:51:51;;;;;;;0.50;0.50;;;10.00;99.90;;;;;;5056594;28;20452;-78
2023/12/28 09:54:19;;;;;;;0.60;0.60;;;10.00;99.90;;;;;;5057262;28;20445;-78
2023/12/28 09:56:46;;;;;;;1.17;0.93;;;10.00;99.90;;;;;;5056776;28;20835;-78
2023/12/28 09:59:15;;;;;;;2.23;0.70;;;10.00;99.90;;;;;;5057259;28;20460;-79
2023/12/28 10:01:42;;;;;;;2.10;0.70;;;10.10;99.90;;;;;;5056859;28;20430;-78
2023/12/28 10:04:09;;;;;;;0.60;0.57;;;10.00;99.90;;;;;;5056586;28;20449;-78
2023/12/28 10:06:37;;;;;;;1.90;0.80;;;10.00;99.90;;;;;;5057028;28;20446;-78
2023/12/28 10:09:04;;;;;;;0.73;0.60;;;10.00;99.90;;;;;;5056299;28;20570;-79
2023/12/28 10:11:31;;;;;;;0.83;0.73;;;10.10;99.90;;;;;;5057004;28;20448;-78
2023/12/28 10:13:59;;;;;;;1.90;0.63;;;10.10;99.90;;;;;;5056851;28;20450;-79
2023/12/28 10:16:26;;;;;;;0.50;0.50;;;10.10;99.90;;;;;;5056420;28;20485;-78
2023/12/28 10:18:56;;;;;;;16.13;1.20;;;10.20;99.90;;;;;;5056494;28;20830;-79
2023/12/28 10:21:24;;;;;;;0.60;0.60;;;10.20;99.90;;;;;;5056759;28;20450;-79
2023/12/28 10:23:52;;;;;;;1.13;0.60;;;10.20;99.90;;;;;;5057052;28;20446;-79
2023/12/28 10:26:20;;;;;;;2.47;1.30;;;10.10;99.90;;;;;;5057443;28;20469;-79
2023/12/28 10:28:46;;;;;;;1.33;0.70;;;10.10;99.90;;;;;;5056428;28;20472;-79
2023/12/28 10:31:15;;;;;;;0.50;0.30;;;10.20;99.90;;;;;;5056805;28;20457;-79
2023/12/28 10:33:45;;;;;;;0.90;0.60;;;10.20;99.90;;;;;;5056991;28;20437;-79
2023/12/28 10:36:13;;;;;;;1.73;0.93;;;10.30;99.90;;;;;;5056380;28;20473;-78
2023/12/28 10:38:42;;;;;;;0.50;0.43;;;10.30;99.90;;;;;;5055929;28;21047;-79
2023/12/28 10:41:12;;;;;;;0.90;0.50;;;10.30;99.90;;;;;;5056315;28;20488;-79
2023/12/28 10:43:46;;;;;;;0.80;0.50;;;10.40;99.90;;;;;;5056132;28;20414;-80
2023/12/28 10:46:22;;;;;;;0.73;0.57;;;10.40;99.90;;;;;;5056773;28;20437;-78
2023/12/28 10:48:53;;;;;;;0.90;0.60;;;10.60;99.90;;;;;;5056468;28;20468;-79
2023/12/28 10:51:24;;;;;;;0.40;0.37;;;10.70;99.90;;;;;;5056210;28;20441;-78
2023/12/28 10:54:00;;;;;;;0.73;0.73;;;10.80;99.90;;;;;;5056360;28;20426;-79
2023/12/28 10:56:34;;;;;;;0.50;0.50;;;10.80;99.90;;;;;;5056041;28;20465;-79
2023/12/28 10:59:10;;;;;;;1.00;0.57;;;10.80;99.90;;;;;;5055818;28;20997;-79
2023/12/28 11:01:42;;;;;;;0.80;0.60;;;10.80;99.90;;;;;;5055450;28;20461;-79
2023/12/28 11:04:18;;;;;;;0.70;0.50;;;10.70;99.90;;;;;;5055896;28;20426;-79
2023/12/28 11:06:47;;;;;;;1.10;0.70;;;10.70;99.90;;;;;;5055428;28;20456;-79
2023/12/28 11:09:16;;;;;;;0.47;0.43;;;10.70;99.90;;;;;;5054292;28;21097;-79
2023/12/28 11:11:45;;;;;;;0.57;0.50;;;10.80;99.90;;;;;;5054618;28;20476;-79
2023/12/28 11:14:14;;;;;;;0.50;0.50;;;10.80;99.90;;;;;;5054678;28;20808;-79
2023/12/28 11:16:42;;;;;;;4.10;0.80;;;10.80;99.90;;;;;;5055209;28;20524;-79
2023/12/28 11:19:10;;;;;;;5.13;0.60;;;10.80;99.90;;;;;;5054156;28;20441;-79
2023/12/28 11:21:37;;;;;;;0.50;0.50;;;10.80;99.90;;;;;;5054563;28;20453;-79
2023/12/28 11:24:05;;;;;;;0.50;0.50;;;10.80;99.90;;;;;;5054390;28;20453;-79
2023/12/28 11:26:32;;;;;;;1.70;0.50;;;10.70;99.90;;;;;;5054348;28;20453;-79
2023/12/28 11:29:04;;;;;;;0.60;0.50;;;10.70;99.90;;;;;;5054286;28;20468;-79
2023/12/28 11:31:34;;;;;;;0.57;0.57;;;10.70;99.90;;;;;;5054318;28;20433;-79
2023/12/28 11:34:01;;;;;;;0.60;0.40;;;10.70;99.90;;;;;;5053977;28;20969;-79
2023/12/28 11:36:35;;;;;;;0.40;0.30;;;10.70;99.90;;;;;;5054180;28;20825;-79
2023/12/28 11:39:04;;;;;;;1.10;0.47;;;10.70;99.90;;;;;;5054172;28;20497;-79
2023/12/28 11:41:33;;;;;;;0.93;0.70;;;10.70;99.90;;;;;;5054412;28;20473;-79
2023/12/28 11:44:05;;;;;;;0.80;0.57;;;10.70;99.90;;;;;;5054475;28;20478;-79
2023/12/28 11:46:32;;;;;;;0.50;0.50;;;10.70;99.90;;;;;;5054229;28;20460;-79
2023/12/28 11:49:05;;;;;;;0.73;0.73;;;10.70;99.90;;;;;;5054406;28;20588;-79
2023/12/28 11:51:32;;;;;;;1.10;0.70;;;10.80;99.90;;;;;;5056325;28;20446;-79
2023/12/28 11:54:00;;;;;;;0.60;0.50;;;10.80;99.90;;;;;;5053975;28;20422;-79
2023/12/28 11:56:26;;;;;;;1.37;0.40;;;10.80;99.90;;;;;;5054220;28;20485;-79
2023/12/28 11:58:53;;;;;;;0.50;0.50;;;10.80;99.90;;;;;;5053922;28;20466;-79
2023/12/28 12:01:21;;;;;;;0.80;0.60;;;10.90;99.90;;;;;;5053866;28;20453;-79
2023/12/28 12:03:49;;;;;;;0.40;0.40;;;10.90;99.90;;;;;;5053781;28;20453;-79
2023/12/28 12:06:16;;;;;;;0.67;0.67;;;10.90;99.90;;;;;;5054088;28;20553;-79
2023/12/28 12:08:46;;;;;;;1.37;0.70;;;10.90;99.90;;;;;;5017531;28;1049129;-79
2023/12/28 12:11:13;;;;;;;1.17;0.70;;;10.90;99.90;;;;;;5054968;28;20204;-79
2023/12/28 12:13:40;;;;;;;2.83;0.80;;;10.90;99.90;;;;;;5054069;28;20449;-79
2023/12/28 12:16:07;;;;;;;2.43;0.70;;;10.90;99.90;;;;;;5054661;28;20446;-78
2023/12/28 12:18:36;;;;;;;0.43;0.40;;;10.90;99.90;;;;;;5054379;28;20466;-78
2023/12/28 12:21:03;;;;;;;0.50;0.40;;;10.90;99.90;;;;;;5054433;28;20446;-78
2023/12/28 12:23:30;;;;;;;3.10;0.57;;;11.00;99.90;;;;;;5054129;28;20477;-78
2023/12/28 12:25:56;;;;;;;0.60;0.47;;;10.90;99.90;;;;;;5054314;28;20911;-78
2023/12/28 12:28:23;;;;;;;0.50;0.40;;;10.90;99.90;;;;;;5054267;28;20469;-78
2023/12/28 12:30:51;;;;;;;0.47;0.47;;;10.90;99.90;;;;;;5054215;28;20445;-78
2023/12/28 12:33:18;;;;;;;1.00;0.60;;;10.80;99.90;;;;;;5054115;28;20474;-78
2023/12/28 12:35:46;;;;;;;1.23;0.50;;;10.80;99.90;;;;;;5054007;28;20454;-78
2023/12/28 12:38:13;;;;;;;0.50;0.50;;;10.80;99.90;;;;;;5053949;28;20493;-78
2023/12/28 12:40:40;;;;;;;4.97;0.53;;;10.80;99.90;;;;;;5054152;28;20446;-77
2023/12/28 12:43:08;;;;;;;0.70;0.60;;;10.80;99.90;;;;;;5054177;28;20817;-78
2023/12/28 12:45:35;;;;;;;2.67;0.50;;;10.80;99.90;;;;;;5053932;28;20496;-79
2023/12/28 12:48:03;;;;;;;0.80;0.73;;;10.80;99.90;;;;;;5053582;28;20954;-78
2023/12/28 12:50:30;;;;;;;0.73;0.60;;;10.90;99.90;;;;;;5053934;28;20438;-78
2023/12/28 12:53:00;;;;;;;1.07;0.60;;;10.90;99.90;;;;;;5053826;28;20438;-78
2023/12/28 12:55:26;;;;;;;1.10;0.60;;;10.90;99.90;;;;;;5054805;28;20422;-78